Time;durP1;ratioP1;P1;durP2;ratioP2;P2;SDS_P1;SDS_P2;PMS_P1;PMS_P2;Temp;Humidity;BMP_temperature;BMP_pressure;BME280_temperature;BME280_humidity;BME280_pressure;Samples;Min_cycle;Max_cycle;Signal;HPM_P1;HPM_P2
2022/04/06 00:01:57;;;;;;;17.70;9.70;;;;;;;4.36;100.00;92770.53;5029806;28;20049;-78
2022/04/06 00:04:25;;;;;;;20.90;9.77;;;;;;;4.30;100.00;92767.94;5029403;28;20072;-79
2022/04/06 00:06:53;;;;;;;18.30;9.52;;;;;;;4.27;100.00;92767.31;5029298;28;20064;-78
2022/04/06 00:09:22;;;;;;;35.30;19.95;;;;;;;4.10;100.00;92774.41;5029334;28;20049;-78
2022/04/06 00:11:49;;;;;;;32.88;17.58;;;;;;;3.87;100.00;92754.22;5029755;28;20046;-79
2022/04/06 00:14:17;;;;;;;28.98;14.75;;;;;;;3.64;100.00;92732.28;5042463;28;20110;-79
2022/04/06 00:16:44;;;;;;;25.63;15.07;;;;;;;3.92;100.00;92781.63;5049494;28;20400;-79
2022/04/06 00:19:11;;;;;;;23.45;14.23;;;;;;;3.81;100.00;92771.00;5049336;28;20503;-79
2022/04/06 00:21:38;;;;;;;19.73;12.63;;;;;;;3.66;100.00;92748.13;5049285;28;20049;-79
2022/04/06 00:24:05;;;;;;;16.85;11.20;;;;;;;3.88;100.00;92771.03;5049627;28;20041;-79
2022/04/06 00:26:35;;;;;;;17.48;11.07;;;;;;;3.93;100.00;92776.38;5049108;28;20056;-79
2022/04/06 00:29:02;;;;;;;15.82;10.23;;;;;;;3.89;100.00;92777.69;5048982;28;20526;-79
2022/04/06 00:31:30;;;;;;;14.68;7.85;;;;;;;3.83;100.00;92766.50;5049525;28;20049;-79
2022/04/06 00:33:56;;;;;;;17.70;9.93;;;;;;;3.65;100.00;92753.41;5049201;28;20061;-79
2022/04/06 00:36:23;;;;;;;13.60;8.15;;;;;;;3.77;100.00;92781.66;5047201;28;20052;-79
2022/04/06 00:38:50;;;;;;;15.18;9.43;;;;;;;3.60;100.00;92766.63;5029680;28;20068;-79
2022/04/06 00:41:17;;;;;;;16.10;11.65;;;;;;;3.68;100.00;92768.28;5028955;28;20049;-79
2022/04/06 00:43:45;;;;;;;19.02;13.60;;;;;;;3.71;100.00;92776.34;5029162;28;20049;-79
2022/04/06 00:46:13;;;;;;;18.67;13.13;;;;;;;3.72;100.00;92779.66;5029341;28;20053;-79
2022/04/06 00:48:40;;;;;;;19.50;13.15;;;;;;;3.67;100.00;92780.22;5029045;28;20133;-79
2022/04/06 00:51:07;;;;;;;18.50;13.23;;;;;;;3.58;100.00;92774.44;5036637;28;20455;-79
2022/04/06 00:53:34;;;;;;;18.38;10.90;;;;;;;3.48;100.00;92774.69;5037483;28;20046;-80
2022/04/06 00:56:01;;;;;;;20.88;13.40;;;;;;;3.38;100.00;92776.72;5038135;28;20049;-79
2022/04/06 00:58:28;;;;;;;14.18;8.77;;;;;;;3.30;100.00;92771.75;5032828;28;20513;-79
2022/04/06 01:00:56;;;;;;;14.68;9.93;;;;;;;3.28;100.00;92774.44;5033027;28;20045;-79
2022/04/06 01:03:24;;;;;;;17.25;9.90;;;;;;;3.21;100.00;92745.66;5033222;28;20042;-79
2022/04/06 01:05:51;;;;;;;14.30;9.60;;;;;;;3.44;100.00;92768.41;5033017;28;20046;-79
2022/04/06 01:08:18;;;;;;;15.82;8.77;;;;;;;3.51;100.00;92772.78;5032911;28;20052;-79
2022/04/06 01:10:45;;;;;;;17.70;8.93;;;;;;;3.52;100.00;92772.59;5033001;28;20049;-79
2022/04/06 01:13:13;;;;;;;15.45;8.68;;;;;;;3.58;100.00;92778.72;5032648;28;20053;-79
2022/04/06 01:15:40;;;;;;;15.60;8.25;;;;;;;3.48;100.00;92776.47;5032777;28;20115;-79
2022/04/06 01:18:09;;;;;;;17.42;7.90;;;;;;;3.53;100.00;92764.03;5032985;28;20056;-79
2022/04/06 01:20:36;;;;;;;12.88;7.45;;;;;;;3.70;100.00;92782.38;5032621;28;20054;-79
2022/04/06 01:23:04;;;;;;;11.43;7.13;;;;;;;3.68;100.00;92770.81;5032817;28;20100;-79
2022/04/06 01:25:33;;;;;;;13.35;7.30;;;;;;;3.58;100.00;92753.34;5032519;28;20412;-79
2022/04/06 01:28:00;;;;;;;15.43;7.53;;;;;;;3.74;100.00;92778.53;5034810;28;20057;-79
2022/04/06 01:30:27;;;;;;;18.83;12.63;;;;;;;3.70;100.00;92774.00;5052388;28;20052;-79
2022/04/06 01:32:57;;;;;;;16.45;9.20;;;;;;;3.40;100.00;92725.75;5052089;28;20056;-79
2022/04/06 01:35:24;;;;;;;13.88;8.60;;;;;;;3.64;100.00;92770.41;5049582;28;20417;-79
2022/04/06 01:37:50;;;;;;;15.02;8.52;;;;;;;3.53;100.00;92751.34;5049688;28;20493;-79
2022/04/06 01:40:19;;;;;;;14.88;8.43;;;;;;;3.63;100.00;92771.38;5052430;28;20060;-79
2022/04/06 01:42:46;;;;;;;13.52;7.90;;;;;;;3.63;100.00;92773.09;5052375;28;20044;-79
2022/04/06 01:45:13;;;;;;;12.80;7.97;;;;;;;3.56;100.00;92778.91;5051582;28;20060;-79
2022/04/06 01:47:40;;;;;;;14.38;7.60;;;;;;;3.55;100.00;92771.44;5051270;28;20057;-79
2022/04/06 01:52:54;;;;;;;15.00;7.50;;;;;;;3.55;100.00;92774.00;5051204;28;20510;-79
2022/04/06 01:55:22;;;;;;;19.13;8.68;;;;;;;3.55;100.00;92781.59;5050921;28;20056;-79
2022/04/06 01:57:57;;;;;;;14.35;7.97;;;;;;;3.58;100.00;92782.06;5050650;28;20045;-79
2022/04/06 02:00:24;;;;;;;11.20;7.43;;;;;;;3.58;100.00;92783.81;5050924;28;20449;-80
2022/04/06 02:02:53;;;;;;;15.23;8.00;;;;;;;3.29;100.00;92748.09;5050353;28;20139;-80
2022/04/06 02:05:21;;;;;;;15.02;7.63;;;;;;;3.30;100.00;92754.78;5051430;28;20099;-79
2022/04/06 02:07:48;;;;;;;12.05;8.10;;;;;;;3.39;100.00;92762.28;5050909;28;20083;-79
2022/04/06 02:10:16;;;;;;;30.10;17.02;;;;;;;3.36;100.00;92775.31;5051943;28;20053;-79
2022/04/06 02:12:45;;;;;;;17.30;9.13;;;;;;;3.35;100.00;92782.16;5051632;28;20048;-79
2022/04/06 02:15:14;;;;;;;18.85;9.65;;;;;;;3.21;100.00;92765.97;5052151;28;20135;-80
2022/04/06 02:17:42;;;;;;;15.93;9.15;;;;;;;3.27;100.00;92790.66;5051475;28;20053;-79
2022/04/06 02:20:10;;;;;;;15.73;8.68;;;;;;;3.25;100.00;92787.50;5051318;28;20131;-79
2022/04/06 02:22:37;;;;;;;16.23;8.68;;;;;;;3.21;100.00;92794.66;5051567;28;20049;-79
2022/04/06 02:25:04;;;;;;;13.52;8.20;;;;;;;3.02;100.00;92779.97;5051694;28;20450;-80
2022/04/06 02:27:31;;;;;;;14.77;8.40;;;;;;;3.07;100.00;92793.69;5051503;28;20048;-79
2022/04/06 02:29:59;;;;;;;13.00;8.65;;;;;;;3.07;100.00;92790.38;5051472;28;20079;-80
2022/04/06 02:32:26;;;;;;;13.70;8.07;;;;;;;3.10;100.00;92794.31;5051731;28;20408;-79
2022/04/06 02:34:53;;;;;;;24.02;14.45;;;;;;;3.05;100.00;92794.81;5051457;28;20440;-79
2022/04/06 02:37:20;;;;;;;27.70;15.20;;;;;;;2.77;100.00;92763.22;5051626;28;20098;-79
2022/04/06 02:39:49;;;;;;;27.67;15.55;;;;;;;2.96;100.00;92796.66;5051492;28;20057;-79
2022/04/06 02:42:16;;;;;;;26.00;15.50;;;;;;;2.93;100.00;92794.47;5051568;28;20053;-80
2022/04/06 02:44:43;;;;;;;30.90;17.67;;;;;;;2.80;100.00;92793.31;5051394;28;20110;-81
2022/04/06 02:47:11;;;;;;;26.65;15.02;;;;;;;2.70;100.00;92775.03;5051229;28;20045;-81
2022/04/06 02:49:38;;;;;;;20.27;12.10;;;;;;;2.64;100.00;92780.78;5050882;28;20050;-79
2022/04/06 02:52:07;;;;;;;18.98;11.57;;;;;;;2.60;100.00;92787.16;5051282;28;20080;-79
2022/04/06 02:54:34;;;;;;;18.02;9.93;;;;;;;2.72;100.00;92800.22;5051084;28;20063;-79
2022/04/06 02:57:00;;;;;;;15.27;8.48;;;;;;;2.73;100.00;92809.41;5050945;28;20198;-80
2022/04/06 02:59:27;;;;;;;14.52;9.32;;;;;;;2.67;100.00;92805.78;5050953;28;20045;-80
2022/04/06 03:01:54;;;;;;;12.57;8.70;;;;;;;2.68;100.00;92807.34;5050757;28;20045;-80
2022/04/06 03:04:22;;;;;;;17.40;10.18;;;;;;;2.64;100.00;92812.00;5050462;28;20041;-79
2022/04/06 03:06:49;;;;;;;16.70;9.63;;;;;;;2.60;100.00;92820.13;5050809;28;20114;-78
2022/04/06 03:09:16;;;;;;;19.83;13.35;;;;;;;2.62;100.00;92816.44;5050453;28;20311;-78
2022/04/06 03:11:43;;;;;;;25.48;16.08;;;;;;;2.54;100.00;92807.16;5050351;28;20049;-78
2022/04/06 03:14:10;;;;;;;23.08;13.23;;;;;;;2.59;100.00;92826.91;5050803;28;20049;-78
2022/04/06 03:16:37;;;;;;;16.98;11.23;;;;;;;2.47;100.00;92810.53;5050711;28;20049;-79
2022/04/06 03:19:04;;;;;;;15.98;9.20;;;;;;;2.40;100.00;92807.88;5050420;28;20148;-79
2022/04/06 03:21:32;;;;;;;14.32;9.40;;;;;;;2.44;100.00;92823.56;5050725;28;20053;-78
2022/04/06 03:23:59;;;;;;;14.57;8.73;;;;;;;2.36;100.00;92819.34;5050395;28;20053;-79
2022/04/06 03:26:26;;;;;;;16.08;9.63;;;;;;;2.33;100.00;92812.84;5050505;28;20045;-80
2022/04/06 03:28:52;;;;;;;17.02;10.55;;;;;;;2.21;100.00;92816.72;5050171;28;20072;-80
2022/04/06 03:31:19;;;;;;;17.23;11.85;;;;;;;2.16;100.00;92807.09;5039619;28;20053;-80
2022/04/06 03:33:46;;;;;;;16.67;11.00;;;;;;;2.21;100.00;92817.53;5049679;28;20052;-80
2022/04/06 03:36:13;;;;;;;16.35;10.43;;;;;;;2.25;100.00;92825.56;5050137;28;20106;-80
2022/04/06 03:38:41;;;;;;;19.00;10.95;;;;;;;2.31;100.00;92835.03;5049794;28;20045;-79
2022/04/06 03:41:10;;;;;;;17.70;10.50;;;;;;;2.28;100.00;92830.31;5049820;28;20056;-79
2022/04/06 03:43:37;;;;;;;16.38;10.23;;;;;;;2.32;100.00;92838.38;5049782;28;20052;-80
2022/04/06 03:46:04;;;;;;;16.05;10.30;;;;;;;2.33;100.00;92835.66;5050030;28;20450;-79
2022/04/06 03:48:31;;;;;;;13.43;8.70;;;;;;;2.34;100.00;92838.97;5049736;28;20049;-79
2022/04/06 03:50:58;;;;;;;13.55;8.57;;;;;;;2.32;100.00;92835.84;5049746;28;20052;-79
2022/04/06 03:53:24;;;;;;;14.90;8.68;;;;;;;2.32;100.00;92843.44;5050298;28;20049;-79
2022/04/06 03:55:53;;;;;;;14.77;8.77;;;;;;;2.29;100.00;92842.03;5049671;28;20055;-79
2022/04/06 03:58:19;;;;;;;15.25;9.18;;;;;;;2.14;100.00;92825.00;5049824;28;20040;-79
2022/04/06 04:00:46;;;;;;;13.85;7.45;;;;;;;2.25;100.00;92850.91;5049632;28;20049;-79
2022/04/06 04:03:13;;;;;;;12.88;7.40;;;;;;;2.25;100.00;92843.31;5050149;28;20052;-80
2022/04/06 04:05:40;;;;;;;8.82;6.05;;;;;;;2.08;100.00;92833.25;5049466;28;20049;-80
2022/04/06 04:08:07;;;;;;;10.38;6.15;;;;;;;2.02;100.00;92833.13;5049893;28;20056;-80
2022/04/06 04:10:34;;;;;;;8.90;5.78;;;;;;;2.07;100.00;92851.97;5049863;28;20057;-80
2022/04/06 04:13:03;;;;;;;14.07;6.90;;;;;;;1.96;100.00;92854.88;5049303;28;20408;-79
2022/04/06 04:15:31;;;;;;;12.82;6.20;;;;;;;2.02;100.00;92863.53;5049290;28;20916;-80
2022/04/06 04:17:57;;;;;;;11.05;6.60;;;;;;;1.86;100.00;92844.94;5049636;28;20063;-80
2022/04/06 04:20:24;;;;;;;13.20;7.07;;;;;;;1.96;100.00;92863.25;5049684;28;20045;-80
2022/04/06 04:22:51;;;;;;;14.77;8.43;;;;;;;1.80;100.00;92850.66;5049964;28;20056;-80
2022/04/06 04:25:18;;;;;;;20.45;10.32;;;;;;;1.93;100.00;92870.38;5043916;28;20045;-79
2022/04/06 04:27:45;;;;;;;57.28;32.47;;;;;;;1.33;100.00;92803.19;5036253;28;21060;-79
2022/04/06 04:30:13;;;;;;;67.07;36.20;;;;;;;1.72;100.00;92876.81;5049998;28;20462;-80
2022/04/06 04:32:40;;;;;;;66.82;34.80;;;;;;;1.56;100.00;92865.78;5053646;28;20455;-80
2022/04/06 04:35:08;;;;;;;60.10;32.33;;;;;;;1.51;100.00;92834.28;5053245;28;20049;-81
2022/04/06 04:37:35;;;;;;;67.25;37.33;;;;;;;1.85;100.00;92874.53;5053358;28;20566;-81
2022/04/06 04:40:03;;;;;;;63.22;34.88;;;;;;;1.95;100.00;92873.56;5053087;28;20756;-80
2022/04/06 04:42:30;;;;;;;45.53;24.30;;;;;;;1.98;100.00;92871.47;5053393;28;20041;-80
2022/04/06 04:44:57;;;;;;;36.30;20.77;;;;;;;2.06;100.00;92887.59;5052946;28;20053;-80
2022/04/06 04:47:25;;;;;;;30.73;18.55;;;;;;;2.06;100.00;92885.06;5053289;28;20053;-77
2022/04/06 04:49:52;;;;;;;26.13;15.05;;;;;;;2.09;100.00;92882.19;5053098;28;20053;-77
2022/04/06 04:52:19;;;;;;;19.48;12.65;;;;;;;2.21;100.00;92896.06;5052999;28;20407;-77
2022/04/06 04:54:46;;;;;;;18.77;9.43;;;;;;;2.22;100.00;92902.72;5052885;28;20564;-79
2022/04/06 04:57:13;;;;;;;17.92;11.32;;;;;;;2.25;100.00;92896.53;5052868;28;20041;-78
2022/04/06 04:59:40;;;;;;;14.80;9.90;;;;;;;2.30;100.00;92909.50;5052626;28;20139;-78
2022/04/06 05:02:07;;;;;;;18.60;9.48;;;;;;;2.26;100.00;92885.44;5053023;28;20052;-78
2022/04/06 05:04:35;;;;;;;16.92;9.38;;;;;;;2.42;100.00;92909.91;5053181;28;20045;-79
2022/04/06 05:07:02;;;;;;;16.88;9.73;;;;;;;2.46;100.00;92912.91;5052942;28;20400;-78
2022/04/06 05:09:29;;;;;;;19.10;8.60;;;;;;;2.57;100.00;92907.44;5052498;28;20055;-78
2022/04/06 05:11:56;;;;;;;20.02;9.93;;;;;;;2.67;100.00;92907.22;5052979;28;20439;-78
2022/04/06 05:14:23;;;;;;;19.55;10.07;;;;;;;2.77;100.00;92912.06;5052820;28;20413;-78
2022/04/06 05:16:50;;;;;;;21.70;13.18;;;;;;;3.05;100.00;92911.56;5050208;28;20408;-78
2022/04/06 05:19:17;;;;;;;31.50;19.70;;;;;;;3.20;100.00;92909.84;5050091;28;20056;-81
2022/04/06 05:21:45;;;;;;;31.40;20.48;;;;;;;3.11;100.00;92888.06;5051740;28;20065;-79
2022/04/06 05:24:12;;;;;;;31.38;19.10;;;;;;;3.55;100.00;92917.00;5052520;28;20644;-78
2022/04/06 05:26:39;;;;;;;31.67;18.95;;;;;;;3.78;100.00;92926.31;5052009;28;20041;-78
2022/04/06 05:29:05;;;;;;;27.70;17.60;;;;;;;3.79;100.00;92925.34;5052234;28;20068;-79
2022/04/06 05:31:32;;;;;;;25.73;17.33;;;;;;;3.79;100.00;92920.25;5052358;28;20045;-78
2022/04/06 05:33:59;;;;;;;28.60;17.85;;;;;;;3.63;100.00;92905.19;5052250;28;20049;-79
2022/04/06 05:36:28;;;;;;;35.28;20.75;;;;;;;3.84;100.00;92925.59;5051683;28;20072;-78
2022/04/06 05:38:57;;;;;;;27.58;16.63;;;;;;;3.82;100.00;92925.00;5051514;28;20096;-78
2022/04/06 05:41:23;;;;;;;25.50;15.65;;;;;;;3.77;100.00;92913.78;5039892;28;20060;-78
2022/04/06 05:43:50;;;;;;;36.35;19.13;;;;;;;3.85;100.00;92917.00;5051775;28;20443;-78
2022/04/06 05:46:17;;;;;;;38.80;18.23;;;;;;;4.14;100.00;92924.81;5051785;28;20053;-78
2022/04/06 05:48:44;;;;;;;29.48;16.38;;;;;;;4.24;100.00;92920.25;5052159;28;20528;-79
2022/04/06 05:51:11;;;;;;;26.27;14.52;;;;;;;4.23;100.00;92908.50;5052131;28;20041;-78
2022/04/06 05:53:38;;;;;;;27.75;15.18;;;;;;;4.14;100.00;92924.81;5051801;28;20056;-78
2022/04/06 05:56:06;;;;;;;34.22;16.55;;;;;;;4.06;100.00;92915.53;5051828;28;20049;-78
2022/04/06 05:58:33;;;;;;;33.30;15.85;;;;;;;4.44;100.00;92923.97;5052115;28;20053;-78
2022/04/06 06:01:00;;;;;;;35.20;18.05;;;;;;;4.81;100.00;92930.63;5051247;28;20049;-78
2022/04/06 06:03:27;;;;;;;38.00;17.23;;;;;;;5.31;100.00;92926.53;5051487;28;20507;-78
2022/04/06 06:05:54;;;;;;;29.83;16.90;;;;;;;5.80;100.00;92924.94;5051750;28;20048;-78
2022/04/06 06:08:20;;;;;;;25.90;14.05;;;;;;;5.97;100.00;92933.06;5051247;28;20049;-78
2022/04/06 06:10:47;;;;;;;32.95;17.48;;;;;;;6.36;100.00;92941.13;5051559;28;20056;-78
2022/04/06 06:13:16;;;;;;;32.17;16.27;;;;;;;6.35;100.00;92944.66;5051844;28;20550;-79
2022/04/06 06:15:42;;;;;;;28.58;15.27;;;;;;;6.30;100.00;92936.81;5051967;28;20048;-79
2022/04/06 06:18:09;;;;;;;34.05;16.95;;;;;;;6.13;100.00;92939.66;5051468;28;20049;-79
2022/04/06 06:20:36;;;;;;;30.52;16.27;;;;;;;6.20;100.00;92926.16;5051194;28;20500;-78
2022/04/06 06:23:03;;;;;;;38.05;19.52;;;;;;;6.55;100.00;92929.44;5051363;28;20507;-79
2022/04/06 06:25:30;;;;;;;34.15;18.25;;;;;;;6.81;100.00;92925.34;5051150;28;20049;-78
2022/04/06 06:27:57;;;;;;;37.60;18.27;;;;;;;7.27;98.27;92927.41;5050682;28;20515;-79
2022/04/06 06:30:27;;;;;;;33.25;19.13;;;;;;;7.10;94.97;92930.34;5051296;28;20052;-79
2022/04/06 06:32:54;;;;;;;42.75;22.33;;;;;;;6.93;96.25;92871.97;5051359;28;20053;-79
2022/04/06 06:35:23;;;;;;;43.63;19.73;;;;;;;7.56;94.90;92926.22;5050922;28;20467;-79
2022/04/06 06:37:52;;;;;;;34.45;19.13;;;;;;;7.94;93.39;92922.22;5051269;28;20070;-79
2022/04/06 06:40:21;;;;;;;39.28;20.52;;;;;;;8.35;92.41;92929.78;5051436;28;20049;-79
2022/04/06 06:42:48;;;;;;;39.67;21.13;;;;;;;8.84;87.18;92930.19;5051268;28;20056;-79
2022/04/06 06:45:15;;;;;;;35.40;18.48;;;;;;;8.42;87.44;92936.47;5050809;28;20139;-79
2022/04/06 06:47:44;;;;;;;38.08;19.35;;;;;;;8.86;86.54;92907.72;5050691;28;20052;-80
2022/04/06 06:50:12;;;;;;;37.75;17.52;;;;;;;9.19;85.54;92932.34;5050596;28;20053;-80
2022/04/06 06:52:39;;;;;;;39.17;18.75;;;;;;;9.00;83.16;92923.81;5050914;28;20049;-80
2022/04/06 06:55:07;;;;;;;36.85;17.67;;;;;;;9.34;83.31;92926.91;5050967;28;20056;-80
2022/04/06 06:57:35;;;;;;;34.08;16.75;;;;;;;9.67;85.06;92912.25;5050613;28;20053;-79
2022/04/06 07:00:02;;;;;;;39.40;18.10;;;;;;;9.71;80.29;92910.03;5050560;28;20055;-80
2022/04/06 07:02:28;;;;;;;39.47;18.75;;;;;;;10.07;83.78;92918.00;5050286;28;20048;-80
2022/04/06 07:04:57;;;;;;;39.42;18.95;;;;;;;10.73;84.01;92917.50;5050669;28;20053;-80
2022/04/06 07:07:23;;;;;;;36.63;18.33;;;;;;;10.44;78.24;92884.66;5050605;28;20055;-80
2022/04/06 07:09:50;;;;;;;40.63;19.35;;;;;;;10.81;80.25;92915.41;5050484;28;20057;-80
2022/04/06 07:12:17;;;;;;;44.47;18.65;;;;;;;11.32;79.95;92896.28;5050205;28;20052;-80
2022/04/06 07:14:44;;;;;;;42.53;20.15;;;;;;;11.58;76.57;92878.88;5050861;28;20467;-81
2022/04/06 07:17:11;;;;;;;39.20;16.92;;;;;;;12.02;74.97;92899.09;5050500;28;20052;-80
2022/04/06 07:19:37;;;;;;;39.47;17.70;;;;;;;11.76;72.07;92903.72;5050091;28;20044;-81
2022/04/06 07:22:06;;;;;;;36.15;17.38;;;;;;;12.37;72.52;92908.56;5050493;28;20424;-80
2022/04/06 07:24:32;;;;;;;36.25;15.48;;;;;;;12.71;70.66;92913.06;5050336;28;20051;-80
2022/04/06 07:26:59;;;;;;;38.45;16.05;;;;;;;12.07;69.92;92924.22;5049960;28;20538;-80
2022/04/06 07:29:26;;;;;;;32.38;15.02;;;;;;;12.69;73.34;92918.44;5050347;28;20110;-80
2022/04/06 07:31:53;;;;;;;36.28;14.70;;;;;;;12.46;70.27;92900.50;5050369;28;20063;-80
2022/04/06 07:34:20;;;;;;;26.48;13.13;;;;;;;12.75;69.98;92931.44;5050219;28;20093;-80
2022/04/06 07:36:47;;;;;;;27.38;11.88;;;;;;;12.88;69.85;92912.34;5050563;28;20080;-80
2022/04/06 07:39:15;;;;;;;32.22;13.07;;;;;;;13.49;69.44;92922.94;5050204;28;20060;-80
2022/04/06 07:41:42;;;;;;;28.70;11.90;;;;;;;13.22;65.69;92926.09;5050778;28;20091;-80
2022/04/06 07:44:09;;;;;;;27.92;12.95;;;;;;;13.67;66.88;92920.34;5047029;28;20056;-80
2022/04/06 07:46:36;;;;;;;28.20;11.73;;;;;;;14.11;66.28;92922.22;5048290;28;20439;-80
2022/04/06 07:49:03;;;;;;;23.80;12.00;;;;;;;14.39;64.55;92908.38;5048615;28;20513;-80
2022/04/06 07:51:30;;;;;;;22.40;10.20;;;;;;;14.70;59.85;92931.22;5049448;28;20052;-80
2022/04/06 07:53:56;;;;;;;22.48;9.90;;;;;;;13.52;59.90;92937.13;5049988;28;20048;-80
2022/04/06 07:56:25;;;;;;;20.50;10.32;;;;;;;14.17;62.90;92931.63;5050001;28;20049;-81
2022/04/06 07:58:51;;;;;;;21.05;8.98;;;;;;;14.47;62.28;92914.13;5049926;28;20053;-80
2022/04/06 08:01:19;;;;;;;14.52;7.30;;;;;;;14.94;58.00;92934.34;5049382;28;20053;-80
2022/04/06 08:03:46;;;;;;;19.25;8.40;;;;;;;15.33;57.37;92927.44;5049548;28;20504;-80
2022/04/06 08:06:13;;;;;;;19.48;7.13;;;;;;;15.72;57.16;92929.03;5048975;28;20048;-81
2022/04/06 08:08:39;;;;;;;18.58;7.45;;;;;;;15.96;50.94;92920.94;5049787;28;20408;-81
2022/04/06 08:11:08;;;;;;;20.88;6.97;;;;;;;15.05;52.71;92916.34;5049501;28;20052;-80
2022/04/06 08:13:36;;;;;;;16.55;6.65;;;;;;;15.30;55.73;92883.94;5049364;28;20094;-80
2022/04/06 08:16:03;;;;;;;13.00;6.07;;;;;;;15.97;54.07;92915.50;5049485;28;20041;-80
2022/04/06 08:18:30;;;;;;;11.93;5.43;;;;;;;15.15;49.65;92906.09;5049749;28;20119;-80
2022/04/06 08:21:06;;;;;;;11.52;5.63;;;;;;;14.67;50.68;92914.38;5049176;28;20049;-79
2022/04/06 08:23:36;;;;;;;13.02;6.10;;;;;;;15.06;52.00;92907.53;5050240;28;20114;-80
2022/04/06 08:26:03;;;;;;;14.15;6.65;;;;;;;14.53;54.31;92902.84;5049548;28;20041;-80
2022/04/06 08:28:30;;;;;;;14.77;6.10;;;;;;;15.27;56.92;92910.31;5049484;28;20562;-80
2022/04/06 08:30:58;;;;;;;14.70;6.57;;;;;;;15.78;50.75;92912.50;5049624;28;20428;-80
2022/04/06 08:33:25;;;;;;;11.52;4.85;;;;;;;16.30;49.59;92910.25;5049605;28;20147;-80
2022/04/06 08:35:52;;;;;;;12.52;5.00;;;;;;;16.70;46.82;92911.44;5049453;28;20045;-81
2022/04/06 08:38:28;;;;;;;12.25;5.45;;;;;;;17.11;46.30;92911.81;5049229;28;20408;-80
2022/04/06 08:40:55;;;;;;;12.18;4.43;;;;;;;16.62;43.74;92914.50;5049219;28;20052;-80
2022/04/06 08:43:43;;;;;;;9.20;4.43;;;;;;;16.03;44.84;92904.13;5049521;28;20049;-80
2022/04/06 08:46:12;;;;;;;8.10;4.82;;;;;;;16.29;48.60;92906.06;5049036;28;20584;-80
2022/04/06 08:48:39;;;;;;;10.55;4.00;;;;;;;16.85;46.86;92896.16;5049768;28;20119;-80
2022/04/06 08:51:08;;;;;;;12.63;3.80;;;;;;;16.26;43.37;92880.69;5049592;28;20119;-80
2022/04/06 08:53:39;;;;;;;6.47;4.10;;;;;;;16.32;43.79;92902.19;5049485;28;20057;-79
2022/04/06 08:56:08;;;;;;;10.48;4.07;;;;;;;16.92;47.65;92897.47;5046092;28;20191;-79
2022/04/06 08:58:35;;;;;;;10.50;3.80;;;;;;;16.45;43.89;92900.97;5048202;28;20045;-79
2022/04/06 09:01:01;;;;;;;8.05;4.57;;;;;;;17.07;41.17;92895.97;5048775;28;20045;-79
2022/04/06 09:03:29;;;;;;;10.07;4.30;;;;;;;16.32;39.50;92889.22;5049026;28;20091;-79
2022/04/06 09:06:05;;;;;;;9.25;3.63;;;;;;;16.42;41.54;92889.28;5048955;28;20046;-80
2022/04/06 09:08:36;;;;;;;;;;;;;;;15.88;43.57;92898.84;5049255;28;20488;-79
2022/04/06 09:11:10;;;;;;;8.40;3.50;;;;;;;15.72;42.26;92888.41;5048955;28;19960;-80
2022/04/06 09:13:37;;;;;;;9.93;3.55;;;;;;;15.57;41.59;92888.28;5049110;28;20101;-79
2022/04/06 09:16:08;;;;;;;11.95;5.30;;;;;;;15.13;42.44;92889.25;5049583;28;20053;-79
2022/04/06 09:18:36;;;;;;;8.90;3.97;;;;;;;15.33;42.97;92875.69;5052794;28;20102;-79
2022/04/06 09:21:04;;;;;;;10.27;4.03;;;;;;;15.67;41.88;92888.34;5053075;28;20049;-80
2022/04/06 09:23:31;;;;;;;9.77;4.30;;;;;;;16.09;43.23;92883.44;5052830;28;20484;-79
2022/04/06 09:26:03;;;;;;;10.55;3.90;;;;;;;16.64;43.56;92864.97;5052239;28;20075;-80
2022/04/06 09:28:30;;;;;;;13.25;3.20;;;;;;;17.29;41.67;92871.59;5052697;28;20099;-80
2022/04/06 09:30:57;;;;;;;11.77;2.80;;;;;;;17.83;42.30;92866.88;5052931;28;20401;-80
2022/04/06 09:33:29;;;;;;;6.22;2.13;;;;;;;18.11;40.87;92834.34;5052964;28;20053;-80
2022/04/06 09:35:58;;;;;;;6.78;2.17;;;;;;;18.72;40.54;92862.16;5052779;28;20048;-80
2022/04/06 09:38:27;;;;;;;6.43;2.38;;;;;;;18.93;37.96;92847.97;5052560;28;20045;-80
2022/04/06 09:41:03;;;;;;;5.28;2.25;;;;;;;18.87;37.86;92817.03;5052383;28;20084;-81
2022/04/06 09:43:30;;;;;;;7.93;2.65;;;;;;;19.17;38.92;92830.91;5052758;28;20052;-81
2022/04/06 09:49:00;;;;;;;5.03;2.15;;;;;;;19.85;37.95;92818.84;5052085;28;20412;-81
2022/04/06 09:51:29;;;;;;;7.22;2.40;;;;;;;20.06;36.38;92823.88;5052120;28;20477;-81
2022/04/06 09:53:56;;;;;;;6.28;2.50;;;;;;;20.37;35.55;92825.34;5051932;28;20056;-81
2022/04/06 09:56:23;;;;;;;7.72;2.20;;;;;;;20.28;35.97;92809.53;5052307;28;20052;-81
2022/04/06 09:58:50;;;;;;;5.80;2.75;;;;;;;20.28;35.57;92820.72;5052676;28;20569;-81
2022/04/06 10:01:17;;;;;;;4.50;2.22;;;;;;;20.61;37.19;92814.84;5052653;28;20053;-81
2022/04/06 10:03:50;;;;;;;6.47;2.22;;;;;;;20.15;36.49;92816.19;5052379;28;20512;-81
2022/04/06 10:06:29;;;;;;;5.80;2.65;;;;;;;20.34;35.29;92797.19;5052662;28;20124;-81
2022/04/06 10:08:56;;;;;;;4.95;2.35;;;;;;;20.60;36.80;92813.28;5052598;28;20478;-81
2022/04/06 10:11:24;;;;;;;4.53;2.13;;;;;;;20.58;35.77;92801.56;5052129;28;20492;-82
2022/04/06 10:13:52;;;;;;;3.92;1.98;;;;;;;20.78;35.87;92816.19;5052397;28;20049;-81
2022/04/06 10:16:20;;;;;;;6.43;1.92;;;;;;;20.71;36.11;92793.03;5052202;28;20455;-84
2022/04/06 10:18:47;;;;;;;3.58;1.90;;;;;;;20.95;34.17;92800.81;5052204;28;20511;-82
2022/04/06 10:21:20;;;;;;;3.80;1.92;;;;;;;20.93;35.16;92789.88;5046589;28;20061;-82
2022/04/06 10:23:57;;;;;;;3.70;1.40;;;;;;;21.05;34.75;92797.25;5051041;28;20049;-82
2022/04/06 10:26:51;;;;;;;8.68;3.90;;;;;;;20.92;34.71;92762.22;5051921;28;20103;-82
2022/04/06 10:29:17;;;;;;;3.92;1.98;;;;;;;21.14;31.98;92794.78;5050854;28;20056;-82
2022/04/06 10:31:46;;;;;;;8.68;3.30;;;;;;;20.80;35.54;92761.84;5051886;28;20082;-82
2022/04/06 10:34:24;;;;;;;3.53;1.80;;;;;;;20.58;33.62;92755.38;5052117;28;20057;-82
2022/04/06 10:37:11;;;;;;;4.70;1.70;;;;;;;21.01;34.00;92788.44;5052292;28;20045;-82
2022/04/06 10:40:00;;;;;;;4.38;1.70;;;;;;;20.95;33.78;92764.25;5051667;28;20044;-83
2022/04/06 10:42:34;;;;;;;5.97;2.03;;;;;;;20.92;33.44;92754.38;5052123;28;20057;-82
2022/04/06 10:45:03;;;;;;;3.80;1.70;;;;;;;20.98;34.29;92762.13;5051718;28;20629;-83
2022/04/06 10:47:31;;;;;;;5.57;2.00;;;;;;;20.89;34.19;92735.91;5051942;28;20061;-82
2022/04/06 10:50:21;;;;;;;4.13;2.03;;;;;;;21.33;34.31;92773.84;5051551;28;20166;-82
2022/04/06 10:52:48;;;;;;;4.65;1.52;;;;;;;21.13;32.13;92743.63;5051730;28;20131;-82
2022/04/06 10:55:24;;;;;;;5.72;2.08;;;;;;;21.51;33.44;92770.69;5051759;28;20048;-82
2022/04/06 10:58:00;;;;;;;5.35;1.98;;;;;;;21.49;32.65;92740.38;5051330;28;20048;-83
2022/04/06 11:00:27;;;;;;;;;;;;;;;21.80;32.91;92769.66;5052086;28;20053;-83
2022/04/06 11:02:54;;;;;;;5.47;1.90;;;;;;;21.71;32.36;92759.84;5051523;28;20367;-83
2022/04/06 11:05:49;;;;;;;8.60;2.08;;;;;;;21.78;33.70;92763.94;5051475;28;20049;-83
2022/04/06 11:11:46;;;;;;;5.07;1.70;;;;;;;22.06;32.54;92753.44;5051510;28;20052;-83
2022/04/06 11:14:27;;;;;;;5.07;2.38;;;;;;;21.84;31.67;92713.13;5050893;28;20053;-83
2022/04/06 11:16:54;;;;;;;6.25;2.20;;;;;;;22.15;32.40;92736.78;5051163;28;20049;-83
2022/04/06 11:19:21;;;;;;;3.90;2.13;;;;;;;22.36;32.38;92749.41;5050917;28;20048;-83
2022/04/06 11:21:49;;;;;;;6.68;1.63;;;;;;;22.28;31.59;92716.13;5051080;28;20052;-83
2022/04/06 11:24:18;;;;;;;4.82;1.80;;;;;;;22.28;29.26;92729.19;5051105;28;20049;-83
2022/04/06 11:26:46;;;;;;;7.32;1.85;;;;;;;22.29;31.50;92718.44;5050875;28;20140;-82
2022/04/06 11:29:13;;;;;;;5.38;1.80;;;;;;;22.46;30.64;92731.97;5050654;28;20060;-83
2022/04/06 11:31:59;;;;;;;2.60;1.38;;;;;;;22.34;29.77;92728.03;5050764;28;20045;-83
2022/04/06 11:34:33;;;;;;;3.58;1.50;;;;;;;22.40;29.67;92713.00;5050966;28;20053;-83
2022/04/06 11:37:00;;;;;;;3.95;1.33;;;;;;;22.29;29.15;92696.72;5050285;28;20045;-83
2022/04/06 11:39:29;;;;;;;3.78;1.70;;;;;;;22.09;25.77;92714.44;5050585;28;20096;-83